createdAt,value
2018-05-25T00:02:37.149Z,92.00
2018-05-25T00:05:39.617Z,92.00
2018-05-25T00:08:42.062Z,91.90
2018-05-25T00:11:44.522Z,91.90
2018-05-25T00:14:47.013Z,91.80
2018-05-25T00:17:49.465Z,91.70
2018-05-25T00:20:51.945Z,91.80
2018-05-25T00:23:54.399Z,91.90
2018-05-25T00:26:56.866Z,91.60
2018-05-25T00:29:59.330Z,91.60
2018-05-25T00:33:01.792Z,91.40
2018-05-25T00:36:04.249Z,91.40
2018-05-25T00:39:07.455Z,91.30
2018-05-25T00:42:09.926Z,91.30
2018-05-25T00:45:13.157Z,91.40
2018-05-25T00:48:15.607Z,91.40
2018-05-25T00:51:18.071Z,91.40
2018-05-25T00:54:21.294Z,91.60
2018-05-25T00:57:23.758Z,91.60
2018-05-25T01:00:26.241Z,91.70
2018-05-25T01:03:28.701Z,91.60
2018-05-25T01:06:31.165Z,91.60
2018-05-25T01:09:34.392Z,91.50
2018-05-25T01:12:36.858Z,91.50
2018-05-25T01:15:39.370Z,91.60
2018-05-25T01:18:41.829Z,91.60
2018-05-25T01:21:44.294Z,91.50
2018-05-25T01:24:46.756Z,91.60
2018-05-25T01:27:49.990Z,91.70
2018-05-25T01:30:52.469Z,91.70
2018-05-25T01:33:54.927Z,91.70
2018-05-25T01:36:57.406Z,91.80
2018-05-25T01:39:59.873Z,91.80
2018-05-25T01:43:02.348Z,91.80
2018-05-25T01:46:04.849Z,92.00
2018-05-25T01:49:07.301Z,91.80
2018-05-25T01:52:09.772Z,91.80
2018-05-25T01:55:12.222Z,91.80
2018-05-25T01:58:14.678Z,92.00
2018-05-25T02:01:17.141Z,92.00
2018-05-25T02:04:19.609Z,92.20
2018-05-25T02:07:22.085Z,92.20
2018-05-25T02:10:24.547Z,92.10
2018-05-25T02:13:27.003Z,92.20
2018-05-25T02:16:29.458Z,92.30
2018-05-25T02:19:31.925Z,92.20
2018-05-25T02:22:34.405Z,92.20
2018-05-25T02:25:36.861Z,92.20
2018-05-25T02:28:39.325Z,92.20
2018-05-25T02:31:41.788Z,91.80
2018-05-25T02:34:44.258Z,91.80
2018-05-25T02:37:46.714Z,91.70
2018-05-25T02:40:49.951Z,91.70
2018-05-25T02:43:52.425Z,91.70
2018-05-25T02:46:54.878Z,91.70
2018-05-25T02:49:57.333Z,91.80
2018-05-25T02:52:59.800Z,91.80
2018-05-25T02:56:03.025Z,92.40
2018-05-25T02:59:05.489Z,92.00
2018-05-25T03:02:08.737Z,91.80
2018-05-25T03:05:11.188Z,91.70
2018-05-25T03:08:13.650Z,91.70
2018-05-25T03:11:16.093Z,91.70
2018-05-25T03:14:19.325Z,91.30
2018-05-25T03:17:21.798Z,91.60
2018-05-25T03:20:24.236Z,91.60
2018-05-25T03:23:26.706Z,91.50
2018-05-25T03:26:29.170Z,91.50
2018-05-25T03:29:31.639Z,91.60
2018-05-25T03:32:34.098Z,91.30
2018-05-25T03:35:36.557Z,91.40
2018-05-25T03:38:39.034Z,91.30
2018-05-25T03:41:41.501Z,91.10
2018-05-25T03:44:44.725Z,91.10
2018-05-25T03:47:47.205Z,91.10
2018-05-25T03:50:49.659Z,91.10
2018-05-25T03:53:52.126Z,91.00
2018-05-25T03:56:54.593Z,91.10
2018-05-25T04:00:08.901Z,91.10
2018-05-25T04:03:11.355Z,91.10
2018-05-25T04:06:13.809Z,91.00
2018-05-25T04:09:16.286Z,91.00
2018-05-25T04:12:18.738Z,91.20
2018-05-25T04:15:21.197Z,91.10
2018-05-25T04:18:23.677Z,91.00
2018-05-25T04:21:26.113Z,90.90
2018-05-25T04:24:28.582Z,90.90
2018-05-25T04:27:31.041Z,90.60
2018-05-25T04:30:34.309Z,90.20
2018-05-25T04:33:36.778Z,89.70
2018-05-25T04:36:39.241Z,88.50
2018-05-25T04:39:41.706Z,88.90
2018-05-25T04:42:44.158Z,87.70
2018-05-25T04:45:46.621Z,87.00
2018-05-25T04:48:49.085Z,86.60
2018-05-25T04:51:52.325Z,84.80
2018-05-25T04:54:54.802Z,85.50
2018-05-25T04:57:57.250Z,83.80
2018-05-25T05:01:00.483Z,82.80
2018-05-25T05:04:02.945Z,82.70
2018-05-25T05:07:05.404Z,82.80
2018-05-25T05:10:07.868Z,82.80
2018-05-25T05:13:10.323Z,82.20
2018-05-25T05:16:12.789Z,80.80
2018-05-25T05:19:15.257Z,78.20
2018-05-25T05:22:17.709Z,74.60
2018-05-25T05:25:20.176Z,70.80
2018-05-25T05:28:22.629Z,67.20
2018-05-25T05:31:25.867Z,67.40
2018-05-25T05:34:28.335Z,67.40
2018-05-25T05:37:30.782Z,70.00
2018-05-25T05:40:34.010Z,71.80
2018-05-25T05:43:36.474Z,71.80
2018-05-25T05:46:38.924Z,72.90
2018-05-25T05:49:42.153Z,74.00
2018-05-25T05:52:44.614Z,74.00
2018-05-25T05:55:47.081Z,73.20
2018-05-25T05:58:49.534Z,72.40
2018-05-25T06:01:51.998Z,66.70
2018-05-25T06:04:54.463Z,65.20
2018-05-25T06:07:57.757Z,68.60
2018-05-25T06:11:00.197Z,68.20
2018-05-25T06:14:02.665Z,68.50
2018-05-25T06:17:05.126Z,69.50
2018-05-25T06:20:07.604Z,70.00
2018-05-25T06:23:11.796Z,68.60
2018-05-25T06:26:14.796Z,68.60
2018-05-25T06:29:18.027Z,62.60
2018-05-25T06:32:20.490Z,62.60
2018-05-25T06:35:22.952Z,58.50
2018-05-25T06:38:25.399Z,53.80
2018-05-25T06:41:27.850Z,50.20
2018-05-25T06:44:30.307Z,47.90
2018-05-25T06:47:32.791Z,43.60
2018-05-25T06:50:35.242Z,41.30
2018-05-25T06:53:37.693Z,40.90
2018-05-25T06:56:40.149Z,39.30
2018-05-25T06:59:42.604Z,37.50
2018-05-25T07:02:45.078Z,36.00
2018-05-25T07:05:47.530Z,34.90
2018-05-25T07:08:50.921Z,35.20
2018-05-25T07:11:54.365Z,36.40
2018-05-25T07:14:57.090Z,36.30
2018-05-25T07:17:59.545Z,39.20
2018-05-25T07:21:02.003Z,42.10
2018-05-25T07:24:04.445Z,44.70
2018-05-25T07:27:06.914Z,47.50
2018-05-25T07:30:10.125Z,53.20
2018-05-25T07:33:12.592Z,53.10
2018-05-25T07:36:15.829Z,55.80
2018-05-25T07:39:18.315Z,55.70
2018-05-25T07:42:20.732Z,58.00
2018-05-25T07:45:23.958Z,59.40
2018-05-25T07:48:26.415Z,59.30
2018-05-25T07:51:28.899Z,59.90
2018-05-25T07:54:31.361Z,59.60
2018-05-25T07:57:34.598Z,61.70
2018-05-25T08:00:37.058Z,61.60
2018-05-25T08:03:40.434Z,61.40
2018-05-25T08:06:42.905Z,62.60
2018-05-25T08:09:46.127Z,63.90
2018-05-25T08:12:48.594Z,63.90
2018-05-25T08:15:51.046Z,64.60
2018-05-25T08:18:53.515Z,65.00
2018-05-25T08:21:56.010Z,66.60
2018-05-25T08:24:59.221Z,67.90
2018-05-25T08:28:01.693Z,67.80
2018-05-25T08:31:04.151Z,67.10
2018-05-25T08:34:07.382Z,67.50
2018-05-25T08:37:09.850Z,67.50
2018-05-25T08:40:12.301Z,67.70
2018-05-25T08:43:15.597Z,70.00
2018-05-25T08:46:18.002Z,70.00
2018-05-25T08:49:20.482Z,70.60
2018-05-25T08:52:22.953Z,70.00
2018-05-25T08:55:25.416Z,68.70
2018-05-25T08:58:28.650Z,67.80
2018-05-25T09:01:31.107Z,67.70
2018-05-25T09:04:33.573Z,68.30
2018-05-25T09:07:36.057Z,68.30
2018-05-25T09:10:38.524Z,68.40
2018-05-25T09:13:40.980Z,67.60
2018-05-25T09:16:44.206Z,67.80
2018-05-25T09:19:46.679Z,67.70
2018-05-25T09:22:49.146Z,67.70
2018-05-25T09:25:51.589Z,67.80
2018-05-25T09:28:54.050Z,67.60
2018-05-25T09:31:56.498Z,67.40
2018-05-25T09:34:58.963Z,65.80
2018-05-25T09:38:01.431Z,65.60
2018-05-25T09:41:03.882Z,66.10
2018-05-25T09:44:07.294Z,65.70
2018-05-25T09:47:10.506Z,64.00
2018-05-25T09:50:12.962Z,63.90
2018-05-25T09:53:15.424Z,63.30
2018-05-25T09:56:18.649Z,62.50
2018-05-25T09:59:21.113Z,62.40
2018-05-25T10:02:24.334Z,60.80
2018-05-25T10:05:26.793Z,60.80
2018-05-25T10:08:29.258Z,60.20
2018-05-25T10:11:31.713Z,59.20
2018-05-25T10:14:34.174Z,59.40
2018-05-25T10:17:36.626Z,60.00
2018-05-25T10:20:39.086Z,59.20
2018-05-25T10:27:15.137Z,58.40
2018-05-25T10:30:18.370Z,58.10
2018-05-25T10:33:20.846Z,58.00
2018-05-25T10:36:23.286Z,57.80
2018-05-25T10:39:26.510Z,59.40
2018-05-25T10:42:28.961Z,59.40
2018-05-25T10:45:32.209Z,59.80
2018-05-25T10:48:34.655Z,59.70
2018-05-25T10:51:37.107Z,61.20
2018-05-25T10:54:40.333Z,61.20
2018-05-25T10:57:42.798Z,61.20
2018-05-25T11:00:45.262Z,60.30
2018-05-25T11:03:48.505Z,58.80
2018-05-25T11:06:50.940Z,58.80
2018-05-25T11:09:53.421Z,57.20
2018-05-25T11:12:55.861Z,57.50
2018-05-25T11:15:58.420Z,58.30
2018-05-25T11:19:00.889Z,58.60
2018-05-25T11:22:03.353Z,58.60
2018-05-25T11:25:07.733Z,58.30
2018-05-25T11:28:10.953Z,56.50
2018-05-25T11:31:13.429Z,56.50
2018-05-25T11:34:15.881Z,56.50
2018-05-25T11:37:19.109Z,56.90
2018-05-25T11:40:21.597Z,57.50
2018-05-25T11:43:24.070Z,58.10
2018-05-25T11:46:26.517Z,57.70
2018-05-25T11:49:28.985Z,59.00
2018-05-25T11:52:32.197Z,57.20
2018-05-25T11:55:34.655Z,57.10
2018-05-25T11:58:37.869Z,58.60
2018-05-25T12:01:40.329Z,58.60
2018-05-25T12:04:54.242Z,58.10
2018-05-25T12:07:56.701Z,58.00
2018-05-25T12:10:59.165Z,58.80
2018-05-25T12:14:01.618Z,59.20
2018-05-25T12:17:04.073Z,57.80
2018-05-25T12:20:07.298Z,58.60
2018-05-25T12:23:09.774Z,58.50
2018-05-25T12:26:12.228Z,58.30
2018-05-25T12:29:15.446Z,58.20
2018-05-25T12:32:17.922Z,58.00
2018-05-25T12:35:20.373Z,58.60
2018-05-25T12:38:22.844Z,58.00
2018-05-25T12:41:26.073Z,57.60
2018-05-25T12:44:28.542Z,57.10
2018-05-25T12:47:31.018Z,57.20
2018-05-25T12:50:33.501Z,57.50
2018-05-25T12:53:35.953Z,57.70
2018-05-25T12:56:39.191Z,57.40
2018-05-25T12:59:41.654Z,57.40
2018-05-25T13:02:44.123Z,57.00
2018-05-25T13:05:46.585Z,56.10
2018-05-25T13:08:49.037Z,56.70
2018-05-25T13:11:51.504Z,56.00
2018-05-25T13:14:53.957Z,56.60
2018-05-25T13:17:56.429Z,55.30
2018-05-25T13:20:58.902Z,55.80
2018-05-25T13:24:01.369Z,55.70
2018-05-25T13:27:03.879Z,54.80
2018-05-25T13:30:06.363Z,55.50
2018-05-25T13:33:08.888Z,53.60
2018-05-25T13:36:11.397Z,54.50
2018-05-25T13:39:13.877Z,54.30
2018-05-25T13:42:16.351Z,52.80
2018-05-25T13:45:18.854Z,53.70
2018-05-25T13:48:21.334Z,53.20
2018-05-25T13:51:23.817Z,54.20
2018-05-25T13:54:26.301Z,53.70
2018-05-25T13:57:29.550Z,51.80
2018-05-25T14:00:32.046Z,51.80
2018-05-25T14:03:34.546Z,52.60
2018-05-25T14:06:37.035Z,53.10
2018-05-25T14:09:40.277Z,54.30
2018-05-25T14:12:42.787Z,54.20
2018-05-25T14:15:45.286Z,54.20
2018-05-25T14:18:47.966Z,54.30
2018-05-25T14:21:50.518Z,55.60
2018-05-25T14:24:53.009Z,55.50
2018-05-25T14:27:55.498Z,55.50
2018-05-25T14:30:58.739Z,54.50
2018-05-25T14:34:01.243Z,54.40
2018-05-25T14:37:03.718Z,54.80
2018-05-25T14:40:06.199Z,56.10
2018-05-25T14:43:08.674Z,55.90
2018-05-25T14:46:11.177Z,56.50
2018-05-25T14:49:13.685Z,55.80
2018-05-25T14:52:16.167Z,55.50
2018-05-25T14:55:18.646Z,55.30
2018-05-25T14:58:21.131Z,55.20
2018-05-25T15:01:23.610Z,55.70
2018-05-25T15:04:26.143Z,56.00
2018-05-25T15:07:28.628Z,56.40
2018-05-25T15:10:31.130Z,56.50
2018-05-25T15:13:33.623Z,56.10
2018-05-25T15:16:36.098Z,55.30
2018-05-25T15:19:38.578Z,55.40
2018-05-25T15:22:41.063Z,55.50
2018-05-25T15:25:43.526Z,54.10
2018-05-25T15:28:45.992Z,55.70
2018-05-25T15:31:48.554Z,54.20
2018-05-25T15:34:50.906Z,54.40
2018-05-25T15:37:53.365Z,54.30
2018-05-25T15:40:55.820Z,54.20
2018-05-25T15:43:58.297Z,54.30
2018-05-25T15:47:01.521Z,54.90
2018-05-25T15:50:03.984Z,54.30
2018-05-25T15:53:06.443Z,55.10
2018-05-25T15:56:08.894Z,56.10
2018-05-25T15:59:12.313Z,55.70
2018-05-25T16:02:14.804Z,55.50
2018-05-25T16:05:17.237Z,55.80
2018-05-25T16:08:19.702Z,55.50
2018-05-25T16:11:22.155Z,54.80
2018-05-25T16:14:24.626Z,54.70
2018-05-25T16:17:27.094Z,53.70
2018-05-25T16:20:29.546Z,53.70
2018-05-25T16:23:32.025Z,53.10
2018-05-25T16:26:34.485Z,53.20
2018-05-25T16:29:36.946Z,54.30
2018-05-25T16:32:40.184Z,53.30
2018-05-25T16:35:43.417Z,54.30
2018-05-25T16:38:45.877Z,53.70
2018-05-25T16:41:48.337Z,53.80
2018-05-25T16:44:50.803Z,54.70
2018-05-25T16:47:53.269Z,54.30
2018-05-25T16:50:55.725Z,55.30
2018-05-25T16:53:58.190Z,55.50
2018-05-25T16:57:00.643Z,55.30
2018-05-25T17:00:03.144Z,55.40
2018-05-25T17:03:05.584Z,55.10
2018-05-25T17:06:08.026Z,55.30
2018-05-25T17:09:10.481Z,55.30
2018-05-25T17:12:12.946Z,54.80
2018-05-25T17:15:16.173Z,55.70
2018-05-25T17:18:18.635Z,55.70
2018-05-25T17:21:21.096Z,57.00
2018-05-25T17:24:24.345Z,56.40
2018-05-25T17:27:26.789Z,56.40
2018-05-25T17:30:29.274Z,55.90
2018-05-25T17:33:31.729Z,57.00
2018-05-25T17:36:34.950Z,58.30
2018-05-25T17:39:37.414Z,58.20
2018-05-25T17:42:39.866Z,58.60
2018-05-25T17:45:43.116Z,59.30
2018-05-25T17:48:45.598Z,59.30
2018-05-25T17:51:48.042Z,59.50
2018-05-25T17:54:50.522Z,59.30
2018-05-25T17:57:52.980Z,59.60
2018-05-25T18:00:56.202Z,60.20
2018-05-25T18:03:58.673Z,60.20
2018-05-25T18:07:01.135Z,60.90
2018-05-25T18:10:03.625Z,61.40
2018-05-25T18:13:06.822Z,62.90
2018-05-25T18:16:09.295Z,62.90
2018-05-25T18:19:11.776Z,62.70
2018-05-25T18:22:14.233Z,63.20
2018-05-25T18:25:16.693Z,63.80
2018-05-25T18:28:19.921Z,64.80
2018-05-25T18:31:22.399Z,64.60
2018-05-25T18:34:30.642Z,65.70
2018-05-25T18:37:33.098Z,65.60
2018-05-25T18:40:35.583Z,66.90
2018-05-25T18:43:42.005Z,68.90
2018-05-25T18:46:44.465Z,70.10
2018-05-25T18:49:46.930Z,71.10
2018-05-25T18:52:49.381Z,71.70
2018-05-25T18:55:51.874Z,72.30
2018-05-25T18:58:54.346Z,72.40
2018-05-25T19:01:56.794Z,72.50
2018-05-25T19:04:59.259Z,73.30
2018-05-25T19:08:01.717Z,73.50
2018-05-25T19:11:04.951Z,73.00
2018-05-25T19:14:07.410Z,72.90
2018-05-25T19:17:09.853Z,73.30
2018-05-25T19:20:12.321Z,73.30
2018-05-25T19:23:14.774Z,73.80
2018-05-25T19:26:17.238Z,74.30
2018-05-25T19:29:19.702Z,73.60
2018-05-25T19:32:22.213Z,73.40
2018-05-25T19:35:24.643Z,73.50
2018-05-25T19:38:27.101Z,75.00
2018-05-25T19:41:30.383Z,73.30
2018-05-25T19:44:32.862Z,73.50
2018-05-25T19:47:35.313Z,74.10
2018-05-25T19:50:37.774Z,73.40
2018-05-25T19:53:40.240Z,73.40
2018-05-25T19:56:42.714Z,73.20
2018-05-25T19:59:45.181Z,70.60
2018-05-25T20:02:47.637Z,71.70
2018-05-25T20:05:50.881Z,72.80
2018-05-25T20:08:53.333Z,72.70
2018-05-25T20:11:55.807Z,73.50
2018-05-25T20:14:58.286Z,74.50
2018-05-25T20:18:01.515Z,74.70
2018-05-25T20:21:03.985Z,74.60
2018-05-25T20:24:07.206Z,74.10
2018-05-25T20:27:09.677Z,74.10
2018-05-25T20:30:12.153Z,72.80
2018-05-25T20:33:15.362Z,70.30
2018-05-25T20:36:17.834Z,71.30
2018-05-25T20:39:20.313Z,70.70
2018-05-25T20:42:22.786Z,70.60
2018-05-25T20:45:25.266Z,69.50
2018-05-25T20:48:27.706Z,68.40
2018-05-25T20:51:30.171Z,69.40
2018-05-25T20:54:32.617Z,69.60
2018-05-25T20:57:35.077Z,70.20
2018-05-25T21:00:37.553Z,69.70
2018-05-25T21:03:40.022Z,68.90
2018-05-25T21:06:42.486Z,68.60
2018-05-25T21:09:44.942Z,68.90
2018-05-25T21:12:47.419Z,68.60
2018-05-25T21:15:49.873Z,68.60
2018-05-25T21:18:52.339Z,69.10
2018-05-25T21:21:55.573Z,69.00
2018-05-25T21:24:58.021Z,68.90
2018-05-25T21:28:00.485Z,68.80
2018-05-25T21:31:02.958Z,69.00
2018-05-25T21:34:06.190Z,69.60
2018-05-25T21:37:08.645Z,69.50
2018-05-25T21:40:11.106Z,69.80
2018-05-25T21:43:14.336Z,70.40
2018-05-25T21:46:16.803Z,70.20
2018-05-25T21:49:19.260Z,71.40
2018-05-25T21:52:21.738Z,72.10
2018-05-25T21:55:24.197Z,73.10
2018-05-25T21:58:27.426Z,73.20
2018-05-25T22:01:29.896Z,73.90
2018-05-25T22:04:32.349Z,73.10
2018-05-25T22:07:35.583Z,73.10
2018-05-25T22:10:38.050Z,73.00
2018-05-25T22:13:40.514Z,73.10
2018-05-25T22:16:43.009Z,74.00
2018-05-25T22:19:45.453Z,74.60
2018-05-25T22:22:48.694Z,74.30
2018-05-25T22:25:51.162Z,74.30
2018-05-25T22:28:53.630Z,74.60
2018-05-25T22:31:56.101Z,76.20
2018-05-25T22:34:58.604Z,77.10
2018-05-25T22:38:01.046Z,78.10
2018-05-25T22:41:03.496Z,78.80
2018-05-25T22:44:17.598Z,80.00
2018-05-25T22:47:32.037Z,80.40
2018-05-25T22:50:46.454Z,80.30
2018-05-25T22:53:54.019Z,80.00
2018-05-25T22:56:56.481Z,80.00
2018-05-25T22:59:58.949Z,79.60
2018-05-25T23:03:01.432Z,79.20
2018-05-25T23:06:03.881Z,79.30
2018-05-25T23:09:07.114Z,79.60
2018-05-25T23:12:09.587Z,79.40
2018-05-25T23:15:12.037Z,79.40
2018-05-25T23:18:14.502Z,79.30
2018-05-25T23:21:17.719Z,80.20
2018-05-25T23:24:20.186Z,80.00
2018-05-25T23:27:22.650Z,80.40
2018-05-25T23:30:39.382Z,81.20
2018-05-25T23:33:41.838Z,81.10
2018-05-25T23:36:45.053Z,81.70
2018-05-25T23:39:47.530Z,81.50
2018-05-25T23:42:50.010Z,81.10
2018-05-25T23:45:52.457Z,80.00
2018-05-25T23:48:55.687Z,78.60
2018-05-25T23:51:58.136Z,78.50
2018-05-25T23:55:01.359Z,76.30
2018-05-25T23:58:03.825Z,76.30
